Time;durP1;ratioP1;P1;durP2;ratioP2;P2;SDS_P1;SDS_P2;PMS_P1;PMS_P2;Temp;Humidity;BMP_temperature;BMP_pressure;BME280_temperature;BME280_humidity;BME280_pressure;Samples;Min_cycle;Max_cycle;Signal;HPM_P1;HPM_P2
2022/05/27 00:01:13;;;;;;;8.20;2.72;;;14.80;99.90;;;;;;5094433;28;20520;-69
2022/05/27 00:03:39;;;;;;;7.40;2.67;;;14.80;99.90;;;;;;5094522;28;20043;-69
2022/05/27 00:06:04;;;;;;;7.00;2.38;;;14.80;99.90;;;;;;5094346;28;20381;-69
2022/05/27 00:08:30;;;;;;;7.97;2.65;;;14.80;99.90;;;;;;5093993;28;20043;-70
2022/05/27 00:10:58;;;;;;;8.50;2.40;;;14.70;99.90;;;;;;5094473;28;20115;-69
2022/05/27 00:13:23;;;;;;;6.00;2.38;;;14.70;99.90;;;;;;5094474;28;20071;-69
2022/05/27 00:15:49;;;;;;;7.97;2.33;;;14.70;99.90;;;;;;5094260;28;20079;-69
2022/05/27 00:18:15;;;;;;;6.05;2.35;;;14.70;99.90;;;;;;5094162;28;20040;-69
2022/05/27 00:20:40;;;;;;;8.85;2.90;;;14.70;99.90;;;;;;5093837;28;20135;-69
2022/05/27 00:23:06;;;;;;;5.07;2.10;;;14.70;99.90;;;;;;5094069;28;20036;-69
2022/05/27 00:25:32;;;;;;;4.55;2.10;;;14.60;99.90;;;;;;5094283;28;20035;-69
2022/05/27 00:27:57;;;;;;;4.80;2.20;;;14.60;99.90;;;;;;5094241;28;20712;-69
2022/05/27 00:30:24;;;;;;;8.90;2.50;;;14.60;99.90;;;;;;5093785;28;20539;-69
2022/05/27 00:32:50;;;;;;;6.00;2.30;;;14.70;99.90;;;;;;5092881;28;20432;-69
2022/05/27 00:35:15;;;;;;;7.35;2.40;;;14.70;99.90;;;;;;5093883;28;20036;-69
2022/05/27 00:37:41;;;;;;;5.18;2.42;;;14.70;99.90;;;;;;5093775;28;20087;-69
2022/05/27 00:40:07;;;;;;;3.88;2.40;;;14.60;99.90;;;;;;5093733;28;20047;-69
2022/05/27 00:42:33;;;;;;;3.72;2.10;;;14.70;99.90;;;;;;5094072;28;20036;-69
2022/05/27 00:44:58;;;;;;;4.80;1.98;;;14.70;99.90;;;;;;5093888;28;20651;-69
2022/05/27 00:47:28;;;;;;;5.40;2.13;;;14.60;99.90;;;;;;5093834;28;20055;-69
2022/05/27 00:50:04;;;;;;;3.67;2.17;;;14.60;99.90;;;;;;5093483;28;20044;-69
2022/05/27 00:52:32;;;;;;;4.82;1.98;;;14.60;99.90;;;;;;5092280;28;20044;-69
2022/05/27 00:55:01;;;;;;;4.53;2.08;;;14.60;99.90;;;;;;5093540;28;20515;-69
2022/05/27 00:57:49;;;;;;;7.97;2.20;;;14.50;99.90;;;;;;5093552;28;20075;-69
2022/05/27 01:00:18;;;;;;;6.18;2.33;;;14.60;99.90;;;;;;5093101;28;20162;-69
2022/05/27 01:02:44;;;;;;;4.32;2.28;;;14.60;99.90;;;;;;5093240;28;20093;-69
2022/05/27 01:05:12;;;;;;;5.10;2.55;;;14.50;99.90;;;;;;5093444;28;20032;-69
2022/05/27 01:07:38;;;;;;;5.78;2.45;;;14.50;99.90;;;;;;5093432;28;20047;-69
2022/05/27 01:10:07;;;;;;;8.43;2.38;;;14.50;99.90;;;;;;5092946;28;20044;-69
2022/05/27 01:12:57;;;;;;;7.00;2.80;;;14.50;99.90;;;;;;5093340;28;20051;-69
2022/05/27 01:15:40;;;;;;;7.00;2.30;;;14.60;99.90;;;;;;5093069;28;20044;-69
2022/05/27 01:21:54;;;;;;;5.97;2.72;;;14.50;99.90;;;;;;5092906;28;20496;-69
2022/05/27 01:24:29;;;;;;;4.97;2.78;;;14.60;99.90;;;;;;5093131;28;20068;-69
2022/05/27 01:27:23;;;;;;;5.32;2.47;;;14.50;99.90;;;;;;5093398;28;20043;-69
2022/05/27 01:30:12;;;;;;;5.80;2.85;;;14.50;99.90;;;;;;5092407;28;20040;-69
2022/05/27 01:32:47;;;;;;;7.90;3.28;;;14.50;99.90;;;;;;5092895;28;20040;-69
2022/05/27 01:35:55;;;;;;;8.95;3.20;;;14.50;99.90;;;;;;5092860;28;20062;-69
2022/05/27 01:38:39;;;;;;;7.30;3.53;;;14.50;99.90;;;;;;5009902;28;20050;-69
2022/05/27 01:41:10;;;;;;;8.38;3.13;;;14.40;99.90;;;;;;5010226;28;20084;-69
2022/05/27 01:43:48;;;;;;;8.18;3.45;;;14.40;99.90;;;;;;5010281;28;20136;-69
2022/05/27 01:46:22;;;;;;;11.68;3.70;;;14.40;99.90;;;;;;5010139;28;20458;-69
2022/05/27 01:49:08;;;;;;;7.28;3.70;;;14.40;99.90;;;;;;5009856;28;20534;-69
2022/05/27 01:51:54;;;;;;;8.20;3.65;;;14.30;99.90;;;;;;5010162;28;20056;-68
2022/05/27 01:54:23;;;;;;;9.50;3.88;;;14.40;99.90;;;;;;5010148;28;20164;-68
2022/05/27 01:57:01;;;;;;;9.32;3.70;;;14.30;99.90;;;;;;5009961;28;20494;-68
2022/05/27 01:59:46;;;;;;;9.00;3.40;;;14.40;99.90;;;;;;4993404;28;20053;-69
2022/05/27 02:02:16;;;;;;;9.70;3.58;;;14.30;99.90;;;;;;5009573;28;20034;-69
2022/05/27 02:04:48;;;;;;;8.63;3.53;;;14.30;99.90;;;;;;5009775;28;20099;-69
2022/05/27 02:07:34;;;;;;;;;;;14.30;99.90;;;;;;5010236;28;20407;-68
2022/05/27 02:10:05;;;;;;;9.50;3.72;;;14.30;99.90;;;;;;5008895;28;19921;-69
2022/05/27 02:12:44;;;;;;;9.00;3.65;;;14.30;99.90;;;;;;5056805;28;20094;-69
2022/05/27 02:15:22;;;;;;;10.77;3.92;;;14.30;99.90;;;;;;5092059;28;20044;-69
2022/05/27 02:17:54;;;;;;;9.57;3.78;;;14.20;99.90;;;;;;5091745;28;20500;-68
2022/05/27 02:20:30;;;;;;;8.68;3.38;;;14.20;99.90;;;;;;5091471;28;20047;-68
2022/05/27 02:23:02;;;;;;;7.25;4.10;;;14.20;99.90;;;;;;5092308;28;20047;-69
2022/05/27 02:25:36;;;;;;;13.35;3.70;;;14.20;99.90;;;;;;5091932;28;20040;-68
2022/05/27 02:28:21;;;;;;;11.55;3.70;;;14.20;99.90;;;;;;5091787;28;20416;-69
2022/05/27 02:30:50;;;;;;;10.82;3.25;;;14.10;99.90;;;;;;5091630;28;20043;-68
2022/05/27 02:36:11;;;;;;;;;;;14.10;99.90;;;;;;5092080;28;20126;-68
2022/05/27 02:38:36;;;;;;;14.30;3.60;;;14.10;99.90;;;;;;5091173;28;19939;-69
2022/05/27 02:41:30;;;;;;;10.32;3.72;;;14.10;99.90;;;;;;5091547;28;20032;-69
2022/05/27 02:44:23;;;;;;;13.48;4.35;;;14.10;99.90;;;;;;5091557;28;20032;-69
2022/05/27 02:47:05;;;;;;;7.55;3.55;;;14.10;99.90;;;;;;5091246;28;20032;-69
2022/05/27 02:49:42;;;;;;;18.02;3.90;;;14.10;99.90;;;;;;5091085;28;20500;-69
2022/05/27 02:52:26;;;;;;;14.32;3.85;;;14.00;99.90;;;;;;5091430;28;20042;-68
2022/05/27 02:55:16;;;;;;;11.10;3.58;;;13.90;99.90;;;;;;5091383;28;20046;-69
2022/05/27 02:57:49;;;;;;;15.45;3.50;;;13.90;99.90;;;;;;5091335;28;20396;-69
2022/05/27 03:00:19;;;;;;;;;;;13.90;99.90;;;;;;5091097;28;20511;-69
2022/05/27 03:02:46;;;;;;;11.70;3.67;;;13.80;99.90;;;;;;5091399;28;19922;-69
2022/05/27 03:05:14;;;;;;;15.52;3.90;;;13.80;99.90;;;;;;5090013;28;20047;-69
2022/05/27 03:08:02;;;;;;;19.55;4.00;;;13.80;99.90;;;;;;5091068;28;20056;-68
2022/05/27 03:10:52;;;;;;;24.50;4.32;;;13.80;99.90;;;;;;5090834;28;20626;-68
2022/05/27 03:13:37;;;;;;;11.68;4.25;;;13.80;99.90;;;;;;5090991;28;20488;-69
2022/05/27 03:16:16;;;;;;;16.80;4.10;;;13.80;99.90;;;;;;5087266;28;20407;-68
2022/05/27 03:18:50;;;;;;;19.00;4.00;;;13.80;99.90;;;;;;5087829;28;20048;-68
2022/05/27 03:21:20;;;;;;;14.00;3.83;;;13.80;99.90;;;;;;5089350;28;20082;-68
2022/05/27 03:24:14;;;;;;;17.60;3.65;;;13.80;99.90;;;;;;5091063;28;20435;-68
2022/05/27 03:26:39;;;;;;;13.82;3.28;;;13.80;99.90;;;;;;5090277;28;20459;-68
2022/05/27 03:29:36;;;;;;;11.77;3.55;;;13.70;99.90;;;;;;5089774;28;20040;-68
2022/05/27 03:32:29;;;;;;;12.27;3.38;;;13.70;99.90;;;;;;5090677;28;20051;-68
2022/05/27 03:35:35;;;;;;;15.40;3.03;;;13.70;99.90;;;;;;5090683;28;20047;-68
2022/05/27 03:38:10;;;;;;;13.55;3.08;;;13.70;99.90;;;;;;5090574;28;20496;-68
2022/05/27 03:41:03;;;;;;;15.55;3.38;;;13.70;99.90;;;;;;5090491;28;20063;-68
2022/05/27 03:43:28;;;;;;;9.40;3.10;;;13.60;99.90;;;;;;5090935;28;20064;-68
2022/05/27 03:45:59;;;;;;;18.27;3.88;;;13.60;99.90;;;;;;5090849;28;20492;-68
2022/05/27 03:48:28;;;;;;;13.00;4.13;;;13.60;99.90;;;;;;5090700;28;20114;-68
2022/05/27 03:51:00;;;;;;;13.80;3.85;;;13.70;99.90;;;;;;5090682;28;20078;-68
2022/05/27 03:54:03;;;;;;;19.02;3.85;;;13.60;99.90;;;;;;5090683;28;20059;-68
2022/05/27 03:56:11;;;;;;;16.23;3.08;;;13.60;99.90;;;;;;5090474;28;20055;-68
2022/05/27 03:58:36;;;;;;;14.70;3.92;;;13.60;99.90;;;;;;5090269;28;20044;-68
2022/05/27 04:01:02;;;;;;;11.27;3.10;;;13.70;99.90;;;;;;5090298;28;20036;-68
2022/05/27 04:03:28;;;;;;;15.10;3.42;;;13.70;99.90;;;;;;5090539;28;20036;-68
2022/05/27 04:05:53;;;;;;;13.93;3.63;;;13.80;99.90;;;;;;5090392;28;20028;-68
2022/05/27 04:08:20;;;;;;;18.08;3.78;;;13.70;99.90;;;;;;5090194;28;20530;-68
2022/05/27 04:10:45;;;;;;;12.00;3.55;;;13.70;99.90;;;;;;5090364;28;20040;-68
2022/05/27 04:13:11;;;;;;;13.60;4.10;;;13.70;99.90;;;;;;5090505;28;20545;-68
2022/05/27 04:15:36;;;;;;;17.52;3.90;;;13.70;99.90;;;;;;5090483;28;20070;-68
2022/05/27 04:18:02;;;;;;;12.10;3.35;;;13.60;99.90;;;;;;5090199;28;20051;-68
2022/05/27 04:20:27;;;;;;;15.98;3.33;;;13.70;99.90;;;;;;5090124;28;20090;-68
2022/05/27 04:22:56;;;;;;;13.32;3.25;;;13.70;99.90;;;;;;5090229;28;20519;-68
2022/05/27 04:25:23;;;;;;;16.42;3.75;;;13.70;99.90;;;;;;5091091;28;20404;-68
2022/05/27 04:27:49;;;;;;;14.85;3.83;;;13.70;99.90;;;;;;5094184;28;20044;-68
2022/05/27 04:30:16;;;;;;;18.58;3.55;;;13.70;99.90;;;;;;5092374;28;20051;-68
2022/05/27 04:32:42;;;;;;;13.77;3.65;;;13.80;99.90;;;;;;5094092;28;20040;-68
2022/05/27 04:35:09;;;;;;;17.48;3.17;;;13.70;99.90;;;;;;5093903;28;20146;-68
2022/05/27 04:37:35;;;;;;;16.40;3.05;;;13.80;99.90;;;;;;5093724;28;20047;-68
2022/05/27 04:40:02;;;;;;;10.48;3.47;;;13.80;99.90;;;;;;5093652;28;20043;-68
2022/05/27 04:42:28;;;;;;;11.43;3.00;;;13.80;99.90;;;;;;5093781;28;20040;-68
2022/05/27 04:44:54;;;;;;;11.45;2.72;;;13.70;99.90;;;;;;5093921;28;20040;-68
2022/05/27 04:47:20;;;;;;;19.08;3.17;;;13.80;99.90;;;;;;5093777;28;20138;-68
2022/05/27 04:49:51;;;;;;;15.85;3.47;;;13.80;99.90;;;;;;5093188;28;20123;-68
2022/05/27 04:52:19;;;;;;;8.10;3.10;;;13.80;99.90;;;;;;5093927;28;20036;-68
2022/05/27 04:54:44;;;;;;;18.40;3.45;;;13.80;99.90;;;;;;5093739;28;20076;-68
2022/05/27 04:57:16;;;;;;;13.40;3.42;;;13.80;99.90;;;;;;5093515;28;20128;-68
2022/05/27 04:59:41;;;;;;;17.30;3.40;;;13.80;99.90;;;;;;5093127;28;20083;-68
2022/05/27 05:02:07;;;;;;;17.60;3.45;;;13.90;99.90;;;;;;5093511;28;20071;-68
2022/05/27 05:04:33;;;;;;;12.30;3.13;;;13.90;99.90;;;;;;5093312;28;20086;-68
2022/05/27 05:07:03;;;;;;;11.77;2.83;;;13.90;99.90;;;;;;5093494;28;20036;-68
2022/05/27 05:09:29;;;;;;;10.60;2.95;;;13.80;99.90;;;;;;5093178;28;20048;-68
2022/05/27 05:11:54;;;;;;;20.92;4.07;;;13.90;99.90;;;;;;5093199;28;20119;-68
2022/05/27 05:14:20;;;;;;;11.70;2.55;;;13.90;99.90;;;;;;5093222;28;20064;-68
2022/05/27 05:16:46;;;;;;;20.08;5.10;;;13.80;99.90;;;;;;5093160;28;20563;-68
2022/05/27 05:19:11;;;;;;;16.40;2.88;;;13.90;99.90;;;;;;5092600;28;20036;-68
2022/05/27 05:21:37;;;;;;;14.00;3.10;;;13.90;99.90;;;;;;5093133;28;20561;-68
2022/05/27 05:24:03;;;;;;;11.60;3.22;;;13.90;99.90;;;;;;5093139;28;20573;-68
2022/05/27 05:26:29;;;;;;;15.93;3.17;;;14.10;99.90;;;;;;5093028;28;20437;-68
2022/05/27 05:28:54;;;;;;;13.15;3.38;;;14.10;99.90;;;;;;5092655;28;20080;-68
2022/05/27 05:31:20;;;;;;;20.23;3.47;;;14.20;99.90;;;;;;5092876;28;20052;-68
2022/05/27 05:33:45;;;;;;;17.45;3.20;;;14.10;99.90;;;;;;5092752;28;20072;-68
2022/05/27 05:36:11;;;;;;;17.13;3.20;;;14.20;99.90;;;;;;5092874;28;20040;-68
2022/05/27 05:38:37;;;;;;;17.25;2.72;;;14.10;99.90;;;;;;5091656;28;20040;-68
2022/05/27 05:41:04;;;;;;;12.73;3.28;;;14.10;99.90;;;;;;5092468;28;20035;-68
2022/05/27 05:43:29;;;;;;;14.85;4.53;;;14.20;99.90;;;;;;5092709;28;20043;-68
2022/05/27 05:45:55;;;;;;;22.20;3.47;;;14.30;99.90;;;;;;5092583;28;20036;-68
2022/05/27 05:48:20;;;;;;;13.55;2.80;;;14.30;99.90;;;;;;5092328;28;20393;-68
2022/05/27 05:50:46;;;;;;;15.57;3.25;;;14.40;99.90;;;;;;5092510;28;20043;-68
2022/05/27 05:53:11;;;;;;;14.20;3.05;;;14.30;99.90;;;;;;5092355;28;20047;-68
2022/05/27 05:55:37;;;;;;;12.98;2.97;;;14.30;99.90;;;;;;5092523;28;20054;-68
2022/05/27 05:58:03;;;;;;;15.45;2.85;;;14.30;99.90;;;;;;5092325;28;20043;-68
2022/05/27 06:00:29;;;;;;;13.45;2.80;;;14.50;99.90;;;;;;5091917;28;20136;-68
2022/05/27 06:02:55;;;;;;;13.20;2.90;;;14.60;99.90;;;;;;5092220;28;20078;-68
2022/05/27 06:05:22;;;;;;;17.15;2.58;;;14.70;99.90;;;;;;5092307;28;20032;-68
2022/05/27 06:07:48;;;;;;;13.10;2.95;;;15.00;99.90;;;;;;5092535;28;20044;-68
2022/05/27 06:10:15;;;;;;;15.82;2.80;;;15.10;99.90;;;;;;5091825;28;20036;-68
2022/05/27 06:12:41;;;;;;;12.00;2.63;;;15.30;99.90;;;;;;5092227;28;20122;-68
2022/05/27 06:15:10;;;;;;;15.13;2.75;;;15.40;99.90;;;;;;5092141;28;20071;-68
2022/05/27 06:17:36;;;;;;;20.10;2.78;;;15.50;99.90;;;;;;5092061;28;20114;-68
2022/05/27 06:20:04;;;;;;;14.27;3.40;;;15.60;99.90;;;;;;5091562;28;20547;-68
2022/05/27 06:22:31;;;;;;;12.52;2.60;;;15.60;99.90;;;;;;5091803;28;20048;-68
2022/05/27 06:24:58;;;;;;;13.75;2.75;;;15.70;99.90;;;;;;5091874;28;20046;-68
2022/05/27 06:27:25;;;;;;;12.80;2.83;;;15.70;99.90;;;;;;5091861;28;20105;-68
2022/05/27 06:35:19;;;;;;;9.98;2.80;;;15.80;99.90;;;;;;5091676;28;20095;-68
2022/05/27 06:37:44;;;;;;;13.57;2.63;;;15.90;99.90;;;;;;5091524;28;20051;-68
2022/05/27 06:40:11;;;;;;;14.80;2.67;;;15.90;99.90;;;;;;5090994;28;20036;-68
2022/05/27 06:42:37;;;;;;;13.00;3.22;;;16.00;99.90;;;;;;5091721;28;20046;-68
2022/05/27 06:45:04;;;;;;;12.25;2.80;;;15.90;99.90;;;;;;5091630;28;20047;-68
2022/05/27 06:47:29;;;;;;;15.45;3.00;;;15.90;99.90;;;;;;5091603;28;20055;-68
2022/05/27 06:49:55;;;;;;;13.20;2.50;;;16.00;99.90;;;;;;5090939;28;20036;-68
2022/05/27 06:52:20;;;;;;;14.05;2.40;;;16.10;99.90;;;;;;5091417;28;20040;-68
2022/05/27 06:54:46;;;;;;;13.80;3.13;;;16.00;99.90;;;;;;5091341;28;20519;-68
2022/05/27 06:57:12;;;;;;;16.25;2.42;;;16.00;99.90;;;;;;5091196;28;20541;-67
2022/05/27 06:59:38;;;;;;;12.32;2.95;;;16.00;99.90;;;;;;5090990;28;20076;-68
2022/05/27 07:02:04;;;;;;;12.05;2.47;;;16.00;99.90;;;;;;5091197;28;20071;-68
2022/05/27 07:04:30;;;;;;;18.40;2.75;;;16.10;99.90;;;;;;5091263;28;20048;-68
2022/05/27 07:06:57;;;;;;;17.23;3.08;;;16.10;99.90;;;;;;5091199;28;20047;-68
2022/05/27 07:09:23;;;;;;;16.17;3.05;;;16.00;99.90;;;;;;5090802;28;20063;-68
2022/05/27 07:11:51;;;;;;;13.20;2.65;;;16.10;99.90;;;;;;5091259;28;20405;-67
2022/05/27 07:14:18;;;;;;;14.00;3.00;;;16.10;99.90;;;;;;5091230;28;20047;-68
2022/05/27 07:16:44;;;;;;;14.48;2.58;;;16.00;99.90;;;;;;5090879;28;20463;-67
2022/05/27 07:19:10;;;;;;;15.38;2.83;;;16.10;99.90;;;;;;5090670;28;20048;-68
2022/05/27 07:21:41;;;;;;;18.95;3.08;;;16.20;99.90;;;;;;5090913;28;20040;-67
2022/05/27 07:24:09;;;;;;;11.10;2.47;;;16.30;99.90;;;;;;5090757;28;20625;-67
2022/05/27 07:26:36;;;;;;;13.35;2.85;;;16.30;99.90;;;;;;5091114;28;20132;-68
2022/05/27 07:29:02;;;;;;;15.88;2.92;;;16.50;99.90;;;;;;5090707;28;20035;-68
2022/05/27 07:31:29;;;;;;;13.65;2.92;;;16.40;99.90;;;;;;5090907;28;20058;-68
2022/05/27 07:33:55;;;;;;;14.48;2.70;;;16.10;99.90;;;;;;5091164;28;20079;-68
2022/05/27 07:36:21;;;;;;;10.45;2.50;;;16.10;99.90;;;;;;5090805;28;20040;-67
2022/05/27 07:38:51;;;;;;;12.52;2.65;;;16.10;99.90;;;;;;5090655;28;20109;-67
2022/05/27 07:41:17;;;;;;;8.80;2.25;;;16.20;99.90;;;;;;5090865;28;20079;-68
2022/05/27 07:43:42;;;;;;;14.52;2.50;;;16.20;99.90;;;;;;5090944;28;20038;-68
2022/05/27 07:46:08;;;;;;;12.35;2.35;;;16.30;99.90;;;;;;5090768;28;20028;-67
2022/05/27 07:48:34;;;;;;;15.15;2.70;;;16.40;99.90;;;;;;5090433;28;20373;-67
2022/05/27 07:51:00;;;;;;;13.38;2.97;;;16.30;99.90;;;;;;5090540;28;20051;-67
2022/05/27 07:53:26;;;;;;;13.63;2.80;;;16.10;99.90;;;;;;5090788;28;20040;-68
2022/05/27 07:55:51;;;;;;;15.77;3.20;;;16.30;99.90;;;;;;5090799;28;20428;-67
2022/05/27 07:58:17;;;;;;;9.80;2.40;;;16.30;99.90;;;;;;5090539;28;20633;-68
2022/05/27 08:00:43;;;;;;;15.82;2.58;;;16.40;99.90;;;;;;5091370;28;20036;-67
2022/05/27 08:03:08;;;;;;;15.60;2.92;;;16.30;99.90;;;;;;5094706;28;20412;-67
2022/05/27 08:05:35;;;;;;;10.60;2.63;;;16.40;99.90;;;;;;5094570;28;20036;-67
2022/05/27 08:08:02;;;;;;;13.30;3.58;;;16.40;99.90;;;;;;5094680;28;20055;-67
2022/05/27 08:10:30;;;;;;;11.45;2.67;;;16.40;99.90;;;;;;5094343;28;20369;-67
2022/05/27 08:12:56;;;;;;;14.43;2.95;;;16.40;99.90;;;;;;5094580;28;20123;-67
2022/05/27 08:15:22;;;;;;;9.07;2.53;;;16.50;99.90;;;;;;5094280;28;20122;-67
2022/05/27 08:17:48;;;;;;;14.23;2.40;;;16.60;99.90;;;;;;5094440;28;20400;-67
2022/05/27 08:20:20;;;;;;;9.57;2.47;;;16.60;99.90;;;;;;5093799;28;20036;-68
2022/05/27 08:22:47;;;;;;;11.93;3.08;;;16.60;99.90;;;;;;5094373;28;20032;-67
2022/05/27 08:25:14;;;;;;;12.70;3.22;;;16.70;99.90;;;;;;5094360;28;20046;-67
2022/05/27 08:27:40;;;;;;;11.85;3.13;;;16.70;99.90;;;;;;5094225;28;20048;-68
2022/05/27 08:30:07;;;;;;;8.65;2.58;;;16.60;99.90;;;;;;5093832;28;20038;-68
2022/05/27 08:32:33;;;;;;;10.25;2.30;;;16.60;99.90;;;;;;5093933;28;20071;-68
2022/05/27 08:38:01;;;;;;;9.95;2.33;;;16.60;99.90;;;;;;5093991;28;20044;-67
2022/05/27 08:40:52;;;;;;;10.88;1.83;;;16.50;99.90;;;;;;5093599;28;20028;-67
2022/05/27 08:43:21;;;;;;;12.27;1.75;;;16.50;99.90;;;;;;5093788;28;20036;-67
2022/05/27 08:46:12;;;;;;;12.20;2.20;;;16.60;99.90;;;;;;5093959;28;20063;-67
2022/05/27 08:48:42;;;;;;;8.13;1.85;;;16.70;99.90;;;;;;5093539;28;20040;-67
2022/05/27 08:51:20;;;;;;;11.38;2.17;;;16.70;99.90;;;;;;5093682;28;20115;-67
2022/05/27 08:53:56;;;;;;;11.43;2.00;;;16.70;99.90;;;;;;5093601;28;20078;-67
2022/05/27 08:59:40;;;;;;;10.52;2.00;;;16.80;99.90;;;;;;5093150;28;20113;-67
2022/05/27 09:02:34;;;;;;;10.50;2.20;;;16.80;99.90;;;;;;5093688;28;20036;-68
2022/05/27 09:05:15;;;;;;;14.45;2.53;;;16.70;99.90;;;;;;5093482;28;20114;-67
2022/05/27 09:08:10;;;;;;;15.27;2.28;;;16.70;99.90;;;;;;5093388;28;20040;-67
2022/05/27 09:10:51;;;;;;;7.88;1.65;;;16.70;99.90;;;;;;5092532;28;20051;-67
2022/05/27 09:13:34;;;;;;;14.57;2.40;;;16.60;99.90;;;;;;5092175;28;20047;-67
2022/05/27 09:16:17;;;;;;;15.23;2.47;;;16.70;99.90;;;;;;5093208;28;20528;-67
2022/05/27 09:18:48;;;;;;;;;;;16.70;99.90;;;;;;5093227;28;20044;-68
2022/05/27 09:21:23;;;;;;;;;;;16.80;99.90;;;;;;5093655;28;20311;-67
2022/05/27 09:24:00;;;;;;;;;;;16.80;99.90;;;;;;5092392;28;19963;-67
2022/05/27 09:26:44;;;;;;;;;;;16.90;99.90;;;;;;5093658;28;19939;-68
2022/05/27 09:29:12;;;;;;;;;;;16.90;99.90;;;;;;5093110;28;19923;-67
2022/05/27 09:31:42;;;;;;;;;;;16.80;99.90;;;;;;5093450;28;19916;-68
2022/05/27 09:34:09;;;;;;;;;;;16.90;99.90;;;;;;5093494;28;20295;-68
2022/05/27 09:36:36;;;;;;;;;;;17.00;99.90;;;;;;5093357;28;19920;-68
2022/05/27 09:39:05;;;;;;;;;;;17.10;99.90;;;;;;5092913;28;19926;-68
2022/05/27 09:41:33;;;;;;;;;;;17.00;99.90;;;;;;5093093;28;19970;-68
2022/05/27 09:44:09;;;;;;;;;;;16.80;99.90;;;;;;5093299;28;20296;-67
2022/05/27 09:46:35;;;;;;;;;;;16.80;99.90;;;;;;5093401;28;19973;-67
2022/05/27 09:49:00;;;;;;;;;;;16.80;99.90;;;;;;5092692;28;19920;-68
2022/05/27 09:51:28;;;;;;;;;;;16.80;99.90;;;;;;5092932;28;19916;-67
2022/05/27 09:53:56;;;;;;;;;;;16.80;99.90;;;;;;5092941;28;19923;-68
2022/05/27 09:56:34;;;;;;;;;;;16.70;99.90;;;;;;5091952;28;19920;-68
2022/05/27 09:59:16;;;;;;;;;;;16.60;99.90;;;;;;5092531;28;19928;-68
2022/05/27 10:01:42;;;;;;;;;;;16.80;99.90;;;;;;5092872;28;19923;-68
2022/05/27 10:04:12;;;;;;;;;;;16.80;99.90;;;;;;5092785;28;20394;-68
2022/05/27 10:06:38;;;;;;;;;;;16.80;99.90;;;;;;5092578;28;19962;-68
2022/05/27 10:09:05;;;;;;;;;;;16.80;99.90;;;;;;5092565;28;19968;-68
2022/05/27 10:11:48;;;;;;;;;;;16.90;99.90;;;;;;5092717;28;19915;-68
2022/05/27 10:14:14;;;;;;;;;;;17.00;99.90;;;;;;5092532;28;20463;-67
2022/05/27 10:16:41;;;;;;;;;;;17.20;99.90;;;;;;5092546;28;19977;-68
2022/05/27 10:19:10;;;;;;;;;;;17.10;99.90;;;;;;5092017;28;20012;-68
2022/05/27 10:21:54;;;;;;;;;;;17.00;99.90;;;;;;5092308;28;19923;-67
2022/05/27 10:24:30;;;;;;;;;;;16.80;99.90;;;;;;5092153;28;19930;-68
2022/05/27 10:27:07;;;;;;;;;;;16.80;99.90;;;;;;5092401;28;19916;-67
2022/05/27 10:29:34;;;;;;;;;;;16.90;99.90;;;;;;5091867;28;19916;-68
2022/05/27 10:32:01;;;;;;;;;;;16.90;99.90;;;;;;5092319;28;19924;-67
2022/05/27 10:34:40;;;;;;;;;;;17.00;99.90;;;;;;5092264;28;19970;-68
2022/05/27 10:37:10;;;;;;;;;;;17.00;99.90;;;;;;5092224;28;19916;-68
2022/05/27 10:39:45;;;;;;;;;;;17.10;99.90;;;;;;5091981;28;19927;-67
2022/05/27 10:42:17;;;;;;;;;;;17.20;99.90;;;;;;5092346;28;19920;-67
2022/05/27 10:45:05;;;;;;;;;;;17.00;99.90;;;;;;5091983;28;20502;-67
2022/05/27 10:47:30;;;;;;;;;;;17.00;99.90;;;;;;5092135;28;19916;-67
2022/05/27 10:50:04;;;;;;;;;;;17.10;99.90;;;;;;5091548;28;20349;-68
2022/05/27 10:52:37;;;;;;;;;;;17.20;99.90;;;;;;5091898;28;19924;-67
2022/05/27 10:55:09;;;;;;;;;;;17.30;99.90;;;;;;5092048;28;20333;-67
2022/05/27 11:03:30;;;;;;;;;;;17.00;99.90;;;;;;5091924;28;19959;-68
2022/05/27 11:06:10;;;;;;;;;;;16.90;99.90;;;;;;5091685;28;20334;-68
2022/05/27 11:08:46;;;;;;;;;;;17.00;99.90;;;;;;5091333;28;19916;-67
2022/05/27 11:11:18;;;;;;;;;;;17.10;99.90;;;;;;5091496;28;20011;-67
2022/05/27 11:16:33;;;;;;;;;;;17.20;99.90;;;;;;5091627;28;20300;-67
2022/05/27 11:19:18;;;;;;;;;;;17.20;99.90;;;;;;5091046;28;19928;-67
2022/05/27 11:22:08;;;;;;;;;;;17.40;99.90;;;;;;5091354;28;20407;-68
2022/05/27 11:24:47;;;;;;;;;;;17.40;99.90;;;;;;5091598;28;20038;-67
2022/05/27 11:27:12;;;;;;;;;;;17.40;99.90;;;;;;5091483;28;19916;-67
2022/05/27 11:29:38;;;;;;;;;;;17.50;99.90;;;;;;5091012;28;19946;-67
2022/05/27 11:32:11;;;;;;;;;;;17.50;99.90;;;;;;5091134;28;19916;-67
2022/05/27 11:34:49;;;;;;;;;;;17.50;99.90;;;;;;5090949;28;20367;-67
2022/05/27 11:37:21;;;;;;;;;;;17.40;99.90;;;;;;5091177;28;19920;-68
2022/05/27 11:39:51;;;;;;;;;;;17.70;99.90;;;;;;5090901;28;19916;-67
2022/05/27 11:42:34;;;;;;;;;;;17.60;99.90;;;;;;5091264;28;19922;-67
2022/05/27 11:45:00;;;;;;;;;;;17.60;99.90;;;;;;5091277;28;19978;-67
2022/05/27 11:47:43;;;;;;;;;;;17.40;99.90;;;;;;5091265;28;19951;-67
2022/05/27 11:50:14;;;;;;;;;;;17.40;99.90;;;;;;5090797;28;20453;-67
2022/05/27 11:52:45;;;;;;;;;;;17.30;99.90;;;;;;5091123;28;20011;-67
2022/05/27 11:55:14;;;;;;;;;;;17.40;99.90;;;;;;5091329;28;19923;-67
2022/05/27 11:57:39;;;;;;;;;;;17.40;99.90;;;;;;5091190;28;20030;-68
2022/05/27 12:00:16;;;;;;;;;;;17.40;99.90;;;;;;5090747;28;20054;-67
2022/05/27 12:02:58;;;;;;;;;;;17.50;99.90;;;;;;5089746;28;19916;-67
2022/05/27 12:05:27;;;;;;;;;;;17.50;99.90;;;;;;5090925;28;19916;-67
2022/05/27 12:07:55;;;;;;;;;;;17.50;99.90;;;;;;5091260;28;19977;-67
2022/05/27 12:10:21;;;;;;;;;;;17.40;99.90;;;;;;5090738;28;20007;-67
2022/05/27 12:12:59;;;;;;;;;;;17.50;99.90;;;;;;5091112;28;20348;-67
2022/05/27 12:15:39;;;;;;;;;;;17.50;99.90;;;;;;5090837;28;20486;-68
2022/05/27 12:18:18;;;;;;;;;;;17.50;99.90;;;;;;5091016;28;19924;-67
2022/05/27 12:20:44;;;;;;;;;;;17.50;99.90;;;;;;5090963;28;19916;-67
2022/05/27 12:23:11;;;;;;;;;;;17.40;99.90;;;;;;5090922;28;19924;-67
2022/05/27 12:25:40;;;;;;;;;;;17.30;99.90;;;;;;5090925;28;20370;-67
2022/05/27 12:28:06;;;;;;;;;;;17.30;99.90;;;;;;5090738;28;20288;-67
2022/05/27 12:30:34;;;;;;;;;;;17.20;99.90;;;;;;5090660;28;19916;-68
2022/05/27 12:33:00;;;;;;;;;;;17.40;99.90;;;;;;5090871;28;19924;-67
2022/05/27 12:35:43;;;;;;;;;;;17.30;99.90;;;;;;5090843;28;19923;-68
2022/05/27 12:38:16;;;;;;;;;;;17.30;99.90;;;;;;5090710;28;19920;-67
2022/05/27 12:40:44;;;;;;;;;;;17.20;99.90;;;;;;5090344;28;20391;-68
2022/05/27 12:43:19;;;;;;;;;;;17.20;99.90;;;;;;5090823;28;19927;-67
2022/05/27 12:45:44;;;;;;;;;;;17.30;99.90;;;;;;5090827;28;19922;-67
2022/05/27 12:48:11;;;;;;;;;;;17.30;99.90;;;;;;5093849;28;20018;-67
2022/05/27 12:50:37;;;;;;;;;;;17.20;99.90;;;;;;5093913;28;19916;-67
2022/05/27 12:53:14;;;;;;;;;;;17.20;99.90;;;;;;5094159;28;20342;-67
2022/05/27 13:01:23;;;;;;;;;;;17.20;99.90;;;;;;5093930;28;20295;-67
2022/05/27 13:03:50;;;;;;;;;;;17.20;99.90;;;;;;5094161;28;19980;-67
2022/05/27 13:06:18;;;;;;;;;;;17.10;99.90;;;;;;5094071;28;20006;-67
2022/05/27 13:08:46;;;;;;;;;;;17.20;99.90;;;;;;5093672;28;19916;-67
2022/05/27 13:11:21;;;;;;;;;;;17.30;99.90;;;;;;5093800;28;20318;-67
2022/05/27 13:13:47;;;;;;;;;;;17.30;99.90;;;;;;5093824;28;19916;-67
2022/05/27 13:16:23;;;;;;;;;;;17.30;99.90;;;;;;5093640;28;19915;-67
2022/05/27 13:18:51;;;;;;;;;;;17.20;99.90;;;;;;5093609;28;19920;-67
2022/05/27 13:21:31;;;;;;;;;;;17.20;99.90;;;;;;5093787;28;19959;-67
2022/05/27 13:24:01;;;;;;;;;;;17.10;99.90;;;;;;5093747;28;19916;-67
2022/05/27 13:26:41;;;;;;;;;;;17.10;99.90;;;;;;5093570;28;19931;-67
2022/05/27 13:29:23;;;;;;;;;;;16.90;99.90;;;;;;5093451;28;20010;-67
2022/05/27 13:31:50;;;;;;;;;;;16.90;99.90;;;;;;5093497;28;19969;-68
2022/05/27 13:34:20;;;;;;;;;;;17.00;99.90;;;;;;5093518;28;20024;-67
2022/05/27 13:36:51;;;;;;;;;;;17.00;99.90;;;;;;5093441;28;19922;-67
2022/05/27 13:39:20;;;;;;;;;;;17.00;99.90;;;;;;5093174;28;19920;-67
2022/05/27 13:41:47;;;;;;;;;;;16.90;99.90;;;;;;5093450;28;19916;-67
2022/05/27 13:44:14;;;;;;;;;;;16.80;99.90;;;;;;5093375;28;19923;-67
2022/05/27 13:46:59;;;;;;;;;;;16.90;99.90;;;;;;5093162;28;20449;-67
2022/05/27 13:49:24;;;;;;;;;;;16.90;99.90;;;;;;5092806;28;20018;-67
2022/05/27 13:51:50;;;;;;;;;;;17.00;99.90;;;;;;5093160;28;20065;-67
2022/05/27 13:54:20;;;;;;;;;;;17.20;99.90;;;;;;5093219;28;19958;-67
2022/05/27 13:57:14;;;;;;;;;;;17.30;99.90;;;;;;5093157;28;19916;-68
2022/05/27 13:59:42;;;;;;;;;;;17.20;99.90;;;;;;5009352;28;19925;-67
2022/05/27 14:02:34;;;;;;;;;;;17.20;99.90;;;;;;5010453;28;20091;-67
2022/05/27 14:05:05;;;;;;;;;;;17.40;99.90;;;;;;5007516;28;20012;-67